createdAt,value
2023-07-25T00:02:22.210Z,99363.63
2023-07-25T00:04:49.190Z,99348.38
2023-07-25T00:07:18.733Z,99359.97
2023-07-25T00:09:45.723Z,99360.47
2023-07-25T00:12:12.684Z,99355.47
2023-07-25T00:14:39.647Z,99360.31
2023-07-25T00:17:06.808Z,99367.63
2023-07-25T00:19:33.861Z,99355.59
2023-07-25T00:22:01.015Z,99359.22
2023-07-25T00:24:30.737Z,99355.03
2023-07-25T00:26:57.780Z,99344.81
2023-07-25T00:29:24.810Z,99350.31
2023-07-25T00:31:51.782Z,99349.59
2023-07-25T00:34:18.792Z,99344.75
2023-07-25T00:36:45.788Z,99334.22
2023-07-25T00:39:12.756Z,99331.03
2023-07-25T00:41:42.387Z,99331.75
2023-07-25T00:44:09.448Z,99332.09
2023-07-25T00:46:36.441Z,99323.47
2023-07-25T00:49:06.160Z,99331.38
2023-07-25T00:51:33.831Z,99332.28
2023-07-25T00:54:01.668Z,99333.09
2023-07-25T00:56:28.765Z,99329.06
2023-07-25T00:58:58.473Z,99340.69
2023-07-25T01:01:26.596Z,99342.16
2023-07-25T01:03:53.672Z,99340.94
2023-07-25T01:06:20.640Z,99344.13
2023-07-25T01:08:51.896Z,99348.72
2023-07-25T01:11:19.836Z,99346.03
2023-07-25T01:13:47.571Z,99341.00
2023-07-25T01:16:21.063Z,99332.34
2023-07-25T01:18:49.527Z,99342.59
2023-07-25T01:21:16.794Z,99338.59
2023-07-25T01:23:45.193Z,99334.44
2023-07-25T01:26:17.087Z,99331.25
2023-07-25T01:28:44.078Z,99323.66
2023-07-25T01:31:11.113Z,99332.78
2023-07-25T01:33:40.374Z,99352.88
2023-07-25T01:36:07.411Z,99365.50
2023-07-25T01:38:34.436Z,99374.94
2023-07-25T01:41:01.449Z,99374.00
2023-07-25T01:43:31.108Z,99379.56
2023-07-25T01:45:59.256Z,99387.31
2023-07-25T01:48:26.270Z,99394.28
2023-07-25T01:50:53.240Z,99405.38
2023-07-25T01:53:20.247Z,99414.69
2023-07-25T01:55:47.264Z,99399.44
2023-07-25T01:58:14.244Z,99398.03
2023-07-25T02:00:43.801Z,99386.97
2023-07-25T02:03:10.885Z,99390.53
2023-07-25T02:05:37.907Z,99389.69
2023-07-25T02:08:05.725Z,99373.13
2023-07-25T02:10:32.670Z,99374.41
2023-07-25T02:12:59.632Z,99364.66
2023-07-25T02:15:26.647Z,99354.03
2023-07-25T02:17:56.456Z,99348.91
2023-07-25T02:20:23.433Z,99340.03
2023-07-25T02:22:50.413Z,99334.91
2023-07-25T02:25:17.381Z,99342.38
2023-07-25T02:27:44.405Z,99339.31
2023-07-25T02:30:12.682Z,99338.78
2023-07-25T02:32:39.781Z,99334.63
2023-07-25T02:35:09.555Z,99336.31
2023-07-25T02:37:36.548Z,99326.13
2023-07-25T02:40:04.074Z,99332.50
2023-07-25T02:42:31.096Z,99320.63
2023-07-25T02:45:07.177Z,99314.88
2023-07-25T02:47:34.200Z,99307.28
2023-07-25T02:50:01.197Z,99301.88
2023-07-25T02:52:30.763Z,99298.00
2023-07-25T02:54:57.802Z,99292.22
2023-07-25T02:57:24.900Z,99289.00
2023-07-25T02:59:52.158Z,99293.16
2023-07-25T03:02:19.233Z,99296.38
2023-07-25T03:04:46.428Z,99298.16
2023-07-25T03:07:13.414Z,99298.00
2023-07-25T03:09:43.039Z,99302.13
2023-07-25T03:12:10.005Z,99297.88
2023-07-25T03:14:36.987Z,99294.47
2023-07-25T03:17:04.500Z,99290.31
2023-07-25T03:19:31.495Z,99277.28
2023-07-25T03:21:58.507Z,99279.22
2023-07-25T03:24:25.587Z,99279.13
2023-07-25T03:26:55.270Z,99267.63
2023-07-25T03:29:22.305Z,99267.41
2023-07-25T03:31:49.289Z,99257.91
2023-07-25T03:34:16.327Z,99253.38
2023-07-25T03:36:43.281Z,99251.19
2023-07-25T03:39:10.253Z,99247.34
2023-07-25T03:41:37.270Z,99244.66
2023-07-25T03:44:06.955Z,99258.25
2023-07-25T03:46:34.022Z,99252.44
2023-07-25T03:49:01.273Z,99256.69
2023-07-25T03:51:28.351Z,99263.63
2023-07-25T03:53:55.514Z,99259.84
2023-07-25T03:56:22.598Z,99260.25
2023-07-25T03:58:49.566Z,99265.47
2023-07-25T04:01:19.217Z,99259.41
2023-07-25T04:03:46.526Z,99273.28
2023-07-25T04:06:13.638Z,99267.31
2023-07-25T04:08:40.621Z,99269.47
2023-07-25T04:11:07.667Z,99275.25
2023-07-25T04:13:34.720Z,99278.13
2023-07-25T04:16:01.777Z,99280.59
2023-07-25T04:18:31.382Z,99284.44
2023-07-25T04:20:58.491Z,99285.69
2023-07-25T04:23:25.445Z,99284.78
2023-07-25T04:25:52.431Z,99278.22
2023-07-25T04:28:19.452Z,99286.25
2023-07-25T04:30:46.501Z,99285.09
2023-07-25T04:33:13.458Z,99295.06
2023-07-25T04:35:43.063Z,99290.00
2023-07-25T04:38:10.041Z,99288.19
2023-07-25T04:40:37.124Z,99286.03
2023-07-25T04:43:04.090Z,99307.47
2023-07-25T04:45:31.080Z,99309.13
2023-07-25T04:47:58.023Z,99308.81
2023-07-25T04:50:25.062Z,99312.19
2023-07-25T04:52:54.635Z,99304.41
2023-07-25T04:55:21.651Z,99294.78
2023-07-25T04:57:50.286Z,99295.03
2023-07-25T05:00:17.622Z,99296.78
2023-07-25T05:02:44.730Z,99297.47
2023-07-25T05:05:11.832Z,99291.66
2023-07-25T05:07:38.869Z,99298.53
2023-07-25T05:10:09.734Z,99299.50
2023-07-25T05:12:36.802Z,99297.66
2023-07-25T05:15:05.022Z,99297.84
2023-07-25T05:17:32.154Z,99292.41
2023-07-25T05:19:59.251Z,99300.84
2023-07-25T05:22:26.372Z,99312.50
2023-07-25T05:24:53.386Z,99318.66
2023-07-25T05:27:23.019Z,99317.84
2023-07-25T05:29:50.294Z,99318.00
2023-07-25T05:32:17.288Z,99318.66
2023-07-25T05:34:44.272Z,99317.47
2023-07-25T05:37:11.212Z,99315.66
2023-07-25T05:39:38.383Z,99313.34
2023-07-25T05:42:05.698Z,99323.94
2023-07-25T05:44:35.382Z,99320.03
2023-07-25T05:47:02.465Z,99317.56
2023-07-25T05:49:29.564Z,99319.06
2023-07-25T05:51:56.507Z,99318.88
2023-07-25T05:54:23.476Z,99313.88
2023-07-25T05:56:50.477Z,99311.31
2023-07-25T05:59:17.460Z,99324.34
2023-07-25T06:01:47.803Z,99323.41
2023-07-25T06:04:14.878Z,99319.75
2023-07-25T06:06:41.871Z,99319.63
2023-07-25T06:09:08.894Z,99309.69
2023-07-25T06:11:36.173Z,99314.50
2023-07-25T06:14:09.832Z,99317.41
2023-07-25T06:16:37.012Z,99313.75
2023-07-25T06:19:06.751Z,99313.09
2023-07-25T06:21:34.119Z,99296.81
2023-07-25T06:24:01.685Z,99294.72
2023-07-25T06:26:28.811Z,99288.50
2023-07-25T06:28:55.829Z,99298.38
2023-07-25T06:31:22.903Z,99285.19
2023-07-25T06:33:49.954Z,99282.78
2023-07-25T06:36:19.538Z,99281.28
2023-07-25T06:38:46.573Z,99280.09
2023-07-25T06:41:13.580Z,99280.88
2023-07-25T06:43:40.641Z,99272.00
2023-07-25T06:46:07.722Z,99268.44
2023-07-25T06:48:34.794Z,99265.88
2023-07-25T06:51:01.895Z,99269.03
2023-07-25T06:53:31.488Z,99262.72
2023-07-25T06:55:58.452Z,99266.81
2023-07-25T06:58:25.517Z,99246.50
2023-07-25T07:00:52.536Z,99257.75
2023-07-25T07:03:19.713Z,99245.13
2023-07-25T07:05:53.164Z,99247.31
2023-07-25T07:08:20.294Z,99241.63
2023-07-25T07:10:52.805Z,99237.00
2023-07-25T07:13:20.129Z,99239.53
2023-07-25T07:15:47.790Z,99232.47
2023-07-25T07:18:15.192Z,99237.13
2023-07-25T07:20:46.417Z,99242.59
2023-07-25T07:23:13.492Z,99232.84
2023-07-25T07:25:40.635Z,99230.34
2023-07-25T07:28:10.328Z,99227.31
2023-07-25T07:30:37.414Z,99217.94
2023-07-25T07:33:04.728Z,99219.25
2023-07-25T07:35:32.150Z,99225.59
2023-07-25T07:37:59.330Z,99223.44
2023-07-25T07:40:26.583Z,99230.81
2023-07-25T07:42:53.767Z,99234.13
2023-07-25T07:45:23.518Z,99227.41
2023-07-25T07:47:50.733Z,99223.84
2023-07-25T07:50:18.253Z,99219.44
2023-07-25T07:52:45.293Z,99215.88
2023-07-25T07:55:13.358Z,99230.44
2023-07-25T07:57:41.108Z,99223.09
2023-07-25T08:00:09.174Z,99225.41
2023-07-25T08:02:39.144Z,99222.97
2023-07-25T08:05:07.206Z,99217.75
2023-07-25T08:07:34.396Z,99218.06
2023-07-25T08:10:01.724Z,99214.06
2023-07-25T08:12:28.772Z,99224.38
2023-07-25T08:14:55.891Z,99217.09
2023-07-25T08:17:23.032Z,99230.53
2023-07-25T08:19:52.664Z,99226.31
2023-07-25T08:22:19.822Z,99240.69
2023-07-25T08:24:46.888Z,99223.41
2023-07-25T08:27:13.950Z,99221.00
2023-07-25T08:29:41.590Z,99216.13
2023-07-25T08:32:09.594Z,99213.31
2023-07-25T08:34:37.385Z,99212.88
2023-07-25T08:37:07.926Z,99216.19
2023-07-25T08:39:35.128Z,99216.06
2023-07-25T08:42:06.758Z,99214.19
2023-07-25T08:44:51.609Z,99205.13
2023-07-25T08:47:23.702Z,99202.22
2023-07-25T08:49:54.211Z,99217.44
2023-07-25T08:52:28.504Z,99209.56
2023-07-25T08:54:56.641Z,99212.63
2023-07-25T08:57:26.049Z,99211.69
2023-07-25T08:59:55.007Z,99212.41
2023-07-25T09:02:23.608Z,99211.19
2023-07-25T09:04:51.517Z,99215.03
2023-07-25T09:07:18.538Z,99215.00
2023-07-25T09:09:48.429Z,99200.50
2023-07-25T09:12:15.640Z,99206.16
2023-07-25T09:14:47.673Z,99211.69
2023-07-25T09:17:14.807Z,99206.72
2023-07-25T09:19:42.186Z,99202.34
2023-07-25T09:22:26.945Z,99213.47
2023-07-25T09:24:56.866Z,99196.13
2023-07-25T09:27:24.100Z,99196.25
2023-07-25T09:29:52.147Z,99203.41
2023-07-25T09:32:26.884Z,99201.94
2023-07-25T09:34:56.082Z,99241.56
2023-07-25T09:37:23.109Z,99259.00
2023-07-25T09:39:52.432Z,99259.34
2023-07-25T09:42:24.612Z,99247.66
2023-07-25T09:44:53.647Z,99254.53
2023-07-25T09:47:25.162Z,99263.03
2023-07-25T09:49:54.606Z,99247.22
2023-07-25T09:52:24.202Z,99248.94
2023-07-25T09:54:51.909Z,99255.59
2023-07-25T09:57:20.110Z,99252.44
2023-07-25T09:59:50.094Z,99269.38
2023-07-25T10:02:17.990Z,99264.63
2023-07-25T10:04:47.425Z,99266.34
2023-07-25T10:07:15.738Z,99253.50
2023-07-25T10:09:46.392Z,99260.16
2023-07-25T10:12:13.808Z,99259.00
2023-07-25T10:14:41.631Z,99253.53
2023-07-25T10:17:11.849Z,99271.88
2023-07-25T10:19:50.353Z,99265.19
2023-07-25T10:22:18.170Z,99274.81
2023-07-25T10:24:45.538Z,99267.00
2023-07-25T10:27:13.867Z,99264.31
2023-07-25T10:29:42.628Z,99256.94
2023-07-25T10:32:14.732Z,99238.81
2023-07-25T10:34:47.090Z,99235.72
2023-07-25T10:37:21.522Z,99239.53
2023-07-25T10:40:02.282Z,99248.19
2023-07-25T10:42:51.729Z,99259.47
2023-07-25T10:45:53.214Z,99288.59
2023-07-25T10:48:43.700Z,99302.53
2023-07-25T10:51:10.750Z,99313.34
2023-07-25T10:53:37.895Z,99312.47
2023-07-25T10:56:16.036Z,99307.31
2023-07-25T10:59:05.337Z,99293.09
2023-07-25T11:01:37.259Z,99302.22
2023-07-25T11:04:25.698Z,99308.34
2023-07-25T11:06:54.405Z,99302.31
2023-07-25T11:09:22.134Z,99318.47
2023-07-25T11:11:51.167Z,99328.94
2023-07-25T11:14:20.462Z,99340.69
2023-07-25T11:16:49.420Z,99344.56
2023-07-25T11:19:16.753Z,99348.72
2023-07-25T11:21:47.253Z,99340.66
2023-07-25T11:24:14.460Z,99352.69
2023-07-25T11:26:41.990Z,99348.47
2023-07-25T11:29:10.657Z,99359.97
2023-07-25T11:31:37.679Z,99355.81
2023-07-25T11:34:11.747Z,99379.44
2023-07-25T11:36:40.242Z,99377.97
2023-07-25T11:39:11.620Z,99383.13
2023-07-25T11:41:40.000Z,99387.91
2023-07-25T11:44:10.857Z,99387.34
2023-07-25T11:46:40.972Z,99395.16
2023-07-25T11:49:10.109Z,99392.03
2023-07-25T11:51:38.680Z,99391.28
2023-07-25T11:54:09.257Z,99391.53
2023-07-25T11:56:37.880Z,99399.63
2023-07-25T11:59:05.184Z,99405.06
2023-07-25T12:01:34.789Z,99413.25
2023-07-25T12:04:02.168Z,99411.78
2023-07-25T12:06:31.189Z,99397.44
2023-07-25T12:08:59.872Z,99400.91
2023-07-25T12:11:29.913Z,99404.47
2023-07-25T12:13:58.878Z,99414.31
2023-07-25T12:16:28.389Z,99415.13
2023-07-25T12:18:57.108Z,99398.53
2023-07-25T12:21:26.322Z,99398.97
2023-07-25T12:23:55.007Z,99383.75
2023-07-25T12:26:22.779Z,99396.97
2023-07-25T12:28:53.453Z,99399.94
2023-07-25T12:31:21.213Z,99406.44
2023-07-25T12:33:50.815Z,99412.66
2023-07-25T12:36:19.756Z,99403.13
2023-07-25T12:38:47.996Z,99394.94
2023-07-25T12:41:15.301Z,99401.31
2023-07-25T12:43:42.357Z,99398.84
2023-07-25T12:46:12.212Z,99393.16
2023-07-25T12:48:39.326Z,99395.88
2023-07-25T12:51:06.440Z,99408.88
2023-07-25T12:53:33.504Z,99405.31
2023-07-25T12:56:00.992Z,99409.75
2023-07-25T12:58:30.914Z,99403.84
2023-07-25T13:00:58.053Z,99412.97
2023-07-25T13:03:28.846Z,99412.81
2023-07-25T13:05:58.976Z,99403.53
2023-07-25T13:08:26.084Z,99405.38
2023-07-25T13:10:53.188Z,99394.69
2023-07-25T13:13:20.225Z,99395.13
2023-07-25T13:15:47.259Z,99400.44
2023-07-25T13:18:14.475Z,99413.25
2023-07-25T13:20:44.293Z,99414.16
2023-07-25T13:23:11.313Z,99415.88
2023-07-25T13:25:39.663Z,99406.47
2023-07-25T13:28:09.387Z,99401.41
2023-07-25T13:30:36.655Z,99401.28
2023-07-25T13:33:04.074Z,99396.56
2023-07-25T13:35:31.197Z,99403.06
2023-07-25T13:38:00.851Z,99401.84
2023-07-25T13:40:29.214Z,99395.31
2023-07-25T13:42:56.380Z,99390.50
2023-07-25T13:45:28.699Z,99386.56
2023-07-25T13:48:01.615Z,99398.78
2023-07-25T13:50:42.228Z,99399.34
2023-07-25T13:53:13.225Z,99397.94
2023-07-25T13:55:40.273Z,99400.13
2023-07-25T13:58:22.909Z,99396.66
2023-07-25T14:00:50.369Z,99397.06
2023-07-25T14:03:17.484Z,99395.03
2023-07-25T14:05:44.557Z,99402.91
2023-07-25T14:08:15.706Z,99402.69
2023-07-25T14:10:42.742Z,99405.38
2023-07-25T14:13:09.930Z,99415.72
2023-07-25T14:15:37.319Z,99416.16
2023-07-25T14:18:04.500Z,99419.47
2023-07-25T14:20:31.938Z,99411.66
2023-07-25T14:22:59.014Z,99414.41
2023-07-25T14:25:28.719Z,99424.19
2023-07-25T14:27:55.713Z,99430.19
2023-07-25T14:30:22.735Z,99431.47
2023-07-25T14:32:49.801Z,99434.28
2023-07-25T14:35:18.045Z,99434.75
2023-07-25T14:37:56.162Z,99437.91
2023-07-25T14:40:25.299Z,99440.09
2023-07-25T14:42:55.019Z,99444.56
2023-07-25T14:45:22.117Z,99446.13
2023-07-25T14:47:49.397Z,99449.19
2023-07-25T14:50:16.888Z,99447.81
2023-07-25T14:52:43.977Z,99451.94
2023-07-25T14:55:10.993Z,99464.25
2023-07-25T14:57:38.386Z,99472.72
2023-07-25T15:00:09.766Z,99472.06
2023-07-25T15:02:37.330Z,99490.09
2023-07-25T15:05:04.979Z,99491.84
2023-07-25T15:07:32.211Z,99504.41
2023-07-25T15:09:59.393Z,99525.47
2023-07-25T15:12:27.201Z,99530.28
2023-07-25T15:14:54.260Z,99536.94
2023-07-25T15:17:25.932Z,99550.13
2023-07-25T15:19:58.069Z,99544.31
2023-07-25T15:22:25.315Z,99543.22
2023-07-25T15:24:52.574Z,99532.31
2023-07-25T15:27:19.557Z,99527.44
2023-07-25T15:29:46.658Z,99535.75
2023-07-25T15:32:13.742Z,99530.53
2023-07-25T15:34:44.874Z,99536.84
2023-07-25T15:37:12.190Z,99549.31
2023-07-25T15:39:39.386Z,99559.16
2023-07-25T15:42:06.888Z,99566.72
2023-07-25T15:44:33.926Z,99562.59
2023-07-25T15:47:02.091Z,99559.38
2023-07-25T15:49:29.120Z,99567.41
2023-07-25T15:51:58.924Z,99559.97
2023-07-25T15:54:27.201Z,99564.13
2023-07-25T15:56:56.561Z,99566.66
2023-07-25T15:59:23.798Z,99567.09
2023-07-25T16:01:53.484Z,99569.00
2023-07-25T16:04:21.525Z,99572.44
2023-07-25T16:06:48.729Z,99574.34
2023-07-25T16:09:18.299Z,99582.94
2023-07-25T16:11:45.404Z,99596.31
2023-07-25T16:14:12.605Z,99588.84
2023-07-25T16:16:42.300Z,99594.78
2023-07-25T16:19:09.375Z,99587.53
2023-07-25T16:21:36.558Z,99585.31
2023-07-25T16:24:03.917Z,99583.47
2023-07-25T16:26:33.540Z,99595.78
2023-07-25T16:29:00.582Z,99598.81
2023-07-25T16:33:57.809Z,99600.91
2023-07-25T16:36:24.939Z,99597.63
2023-07-25T16:38:53.591Z,99596.28
2023-07-25T16:41:20.590Z,99602.91
2023-07-25T16:43:54.816Z,99610.97
2023-07-25T16:46:21.947Z,99610.31
2023-07-25T16:48:48.971Z,99614.59
2023-07-25T16:51:16.020Z,99620.69
2023-07-25T16:53:43.108Z,99628.34
2023-07-25T16:56:12.758Z,99631.00
2023-07-25T16:58:39.823Z,99641.34
2023-07-25T17:01:09.490Z,99639.69
2023-07-25T17:03:36.722Z,99643.91
2023-07-25T17:06:05.261Z,99645.84
2023-07-25T17:08:32.639Z,99646.44
2023-07-25T17:10:59.809Z,99646.50
2023-07-25T17:13:26.814Z,99643.47
2023-07-25T17:15:54.056Z,99653.69
2023-07-25T17:18:23.737Z,99650.47
2023-07-25T17:20:50.880Z,99655.81
2023-07-25T17:23:18.136Z,99655.59
2023-07-25T17:25:45.190Z,99658.66
2023-07-25T17:28:12.325Z,99655.44
2023-07-25T17:30:39.379Z,99663.31
2023-07-25T17:33:06.384Z,99667.44
2023-07-25T17:35:38.259Z,99665.91
2023-07-25T17:38:05.817Z,99666.09
2023-07-25T17:40:33.191Z,99674.50
2023-07-25T17:43:00.228Z,99676.81
2023-07-25T17:45:27.288Z,99676.38
2023-07-25T17:47:54.382Z,99687.38
2023-07-25T17:50:21.504Z,99691.13
2023-07-25T17:52:51.135Z,99686.88
2023-07-25T17:55:18.204Z,99692.50
2023-07-25T17:57:45.206Z,99697.16
2023-07-25T18:00:13.491Z,99700.84
2023-07-25T18:02:40.688Z,99704.22
2023-07-25T18:05:08.069Z,99702.09
2023-07-25T18:07:35.183Z,99698.94
2023-07-25T18:10:05.618Z,99709.06
2023-07-25T18:12:32.648Z,99704.50
2023-07-25T18:14:59.717Z,99713.59
2023-07-25T18:17:26.883Z,99712.19
2023-07-25T18:19:54.137Z,99718.88
2023-07-25T18:22:21.233Z,99723.09
2023-07-25T18:24:48.355Z,99731.53
2023-07-25T18:27:18.264Z,99729.34
2023-07-25T18:29:45.356Z,99740.72
2023-07-25T18:32:12.487Z,99746.50
2023-07-25T18:34:39.912Z,99749.72
2023-07-25T18:37:07.092Z,99755.31
2023-07-25T18:39:34.110Z,99757.09
2023-07-25T18:42:01.139Z,99760.47
2023-07-25T18:44:30.816Z,99766.09
2023-07-25T18:46:57.965Z,99768.34
2023-07-25T18:49:25.111Z,99765.00
2023-07-25T18:51:52.182Z,99775.72
2023-07-25T18:54:19.225Z,99781.81
2023-07-25T18:56:46.288Z,99783.94
2023-07-25T18:59:13.514Z,99788.06
2023-07-25T19:01:43.243Z,99802.31
2023-07-25T19:04:10.497Z,99799.34
2023-07-25T19:06:37.753Z,99805.19
2023-07-25T19:09:05.410Z,99812.31
2023-07-25T19:11:32.566Z,99809.00
2023-07-25T19:13:59.625Z,99809.00
2023-07-25T19:16:26.680Z,99821.09
2023-07-25T19:18:56.341Z,99821.53
2023-07-25T19:21:23.336Z,99829.09
2023-07-25T19:23:50.427Z,99828.63
2023-07-25T19:26:17.413Z,99841.66
2023-07-25T19:28:44.455Z,99844.13
2023-07-25T19:31:11.585Z,99844.56
2023-07-25T19:33:38.771Z,99854.38
2023-07-25T19:36:08.432Z,99850.41
2023-07-25T19:38:35.556Z,99856.69
2023-07-25T19:41:02.741Z,99859.19
2023-07-25T19:43:31.397Z,99867.56
2023-07-25T19:46:03.837Z,99873.66
2023-07-25T19:48:31.097Z,99866.13
2023-07-25T19:50:58.175Z,99877.22
2023-07-25T19:53:27.784Z,99880.97
2023-07-25T19:55:55.487Z,99887.66
2023-07-25T19:58:22.635Z,99891.03
2023-07-25T20:00:49.825Z,99898.13
2023-07-25T20:03:17.052Z,99902.09
2023-07-25T20:05:44.228Z,99905.06
2023-07-25T20:08:11.267Z,99903.56
2023-07-25T20:10:41.523Z,99904.19
2023-07-25T20:13:08.797Z,99901.03
2023-07-25T20:15:35.945Z,99911.53
2023-07-25T20:18:03.188Z,99906.91
2023-07-25T20:20:30.370Z,99909.88
2023-07-25T20:22:57.460Z,99916.53
2023-07-25T20:25:24.537Z,99915.69
2023-07-25T20:27:54.225Z,99918.22
2023-07-25T20:30:21.241Z,99923.84
2023-07-25T20:32:48.489Z,99926.75
2023-07-25T20:35:15.636Z,99934.94
2023-07-25T20:37:42.624Z,99936.19
2023-07-25T20:40:10.822Z,99936.81
2023-07-25T20:42:37.866Z,99938.69
2023-07-25T20:45:08.414Z,99936.59
2023-07-25T20:47:35.435Z,99939.56
2023-07-25T20:50:02.436Z,99942.50
2023-07-25T20:52:29.447Z,99948.31
2023-07-25T20:54:56.531Z,99950.22
2023-07-25T20:57:23.504Z,99951.03
2023-07-25T20:59:50.591Z,99950.22
2023-07-25T21:02:21.579Z,99955.44
2023-07-25T21:04:48.671Z,99960.69
2023-07-25T21:07:15.721Z,99964.66
2023-07-25T21:09:42.721Z,99967.81
2023-07-25T21:12:11.156Z,99970.53
2023-07-25T21:14:39.514Z,99974.28
2023-07-25T21:17:06.606Z,99976.56
2023-07-25T21:19:36.208Z,99971.97
2023-07-25T21:22:03.323Z,99968.22
2023-07-25T21:24:30.466Z,99975.97
2023-07-25T21:26:57.529Z,99980.59
2023-07-25T21:29:24.685Z,99982.47
2023-07-25T21:31:51.745Z,99988.75
2023-07-25T21:34:18.805Z,99983.47
2023-07-25T21:36:48.380Z,99986.84
2023-07-25T21:39:15.432Z,99995.19
2023-07-25T21:41:42.503Z,99993.72
2023-07-25T21:44:09.772Z,99996.03
2023-07-25T21:46:38.365Z,99998.78
2023-07-25T21:49:07.516Z,100001.69
2023-07-25T21:51:34.617Z,99998.59
2023-07-25T21:54:04.192Z,100005.91
2023-07-25T21:56:31.416Z,99999.63
2023-07-25T21:58:59.186Z,100004.63
2023-07-25T22:01:26.272Z,100006.31
2023-07-25T22:03:53.387Z,100009.88
2023-07-25T22:06:20.481Z,100006.53
2023-07-25T22:08:47.545Z,100010.69
2023-07-25T22:11:17.241Z,100011.97
2023-07-25T22:13:44.340Z,100013.22
2023-07-25T22:16:11.386Z,100019.69
2023-07-25T22:18:38.489Z,100014.88
2023-07-25T22:21:05.593Z,100013.22
2023-07-25T22:23:32.649Z,100017.63
2023-07-25T22:26:00.285Z,100014.25
2023-07-25T22:28:30.173Z,100018.47
2023-07-25T22:31:00.854Z,100016.13
2023-07-25T22:33:27.993Z,100021.19
2023-07-25T22:35:55.151Z,100022.41
2023-07-25T22:38:22.171Z,100033.69
2023-07-25T22:40:49.157Z,100031.03
2023-07-25T22:43:16.296Z,100037.91
2023-07-25T22:45:45.956Z,100045.47
2023-07-25T22:48:13.077Z,100050.28
2023-07-25T22:50:40.029Z,100050.63
2023-07-25T22:53:07.068Z,100059.19
2023-07-25T22:55:34.081Z,100062.56
2023-07-25T22:58:01.056Z,100066.31
2023-07-25T23:00:28.030Z,100064.59
2023-07-25T23:02:57.721Z,100064.81
2023-07-25T23:05:24.808Z,100063.38
2023-07-25T23:07:51.814Z,100069.19
2023-07-25T23:10:18.906Z,100061.25
2023-07-25T23:12:46.005Z,100065.00
2023-07-25T23:15:13.274Z,100072.56
2023-07-25T23:17:40.537Z,100072.13
2023-07-25T23:20:11.162Z,100068.38
2023-07-25T23:22:38.206Z,100076.91
2023-07-25T23:25:06.256Z,100074.63
2023-07-25T23:27:33.280Z,100072.47
2023-07-25T23:30:00.251Z,100062.69
2023-07-25T23:32:27.288Z,100069.00
2023-07-25T23:34:54.346Z,100060.59
2023-07-25T23:37:23.937Z,100070.72
2023-07-25T23:39:51.190Z,100070.69
2023-07-25T23:42:18.242Z,100060.22
2023-07-25T23:44:45.313Z,100058.59
2023-07-25T23:47:12.426Z,100055.91
2023-07-25T23:49:39.602Z,100055.44
2023-07-25T23:52:07.468Z,100058.03
2023-07-25T23:54:37.082Z,100065.69
2023-07-25T23:57:04.841Z,100063.56
2023-07-25T23:59:31.885Z,100067.53
